Coronel FAP Francisco Secada Vignetta International Airport
SPQT : rendu visible

Aérodrome :











RETROUVEZ-NOUS SUR...

 
LOGIN :

S'inscrire | Disclaimer

   EN    FR    IT 

 









Légende :    VFR   VFR Marginal   IFR   IFR Intensif   IFR Très Intensif
Visi : 
Plafond : 
>= 8 km
>= 3000ft
5 à 8 km
1000 à 3000 ft
1500m à 5 km
500 à 1000 ft
800 à 1500m
200 à 500 ft
< 800m
< 200 ft
Symboles :   Orages  Brouillard  Fortes neiges  Fortes précipitations  Vent > 20 kt






- Altitude de l'aérodrome : 306 ft
- Code IATA : IQT


SPQT - Coronel FAP Francisco Secada Vignetta International

DERNIER METAR :
  • 210300Z 02004KT 9999 BKN020 BKN080 26/24 Q1009 NOSIG RMK CB W PP000

METARs EXPIRÉS :
  • 210200Z 35006KT 320V020 9999 VCTS SCT015 FEW020CB BKN080 26/24 Q1009 TEMPO 4000 TSRA RMK PP000
  • 210133Z 33006KT 270V010 8000 VCTS BKN015 FEW020CB BKN080 25/24 Q1009
  • 210100Z VRB02KT 9999 FEW015 SCT080 25/24 Q1007 TEMPO SHRA RMK PP000

TAF TAF SPQT
Valide du 21 à 00h jusqu'au 22 à 00h UTC


202300Z 2100/2124 18004KT 9999 SCT020 SCT100 TX33/2120Z TN23/2111Z
TEMPO 2103/2107 35015KT 4000 SHRA BKN010 FEW025CB BKN070
TEMPO 2108/2112 2000 RADZ BKN005 BKN080
BECMG 2113/2116 BKN015 BKN100
TEMPO 2118/2122 01012KT 4000 SHRA BKN010 FEW025CB BKN080



MET'MAP, la Météo Aéronautique d'un coup d'oeil ! - Copyright ORBIFLY Décembre 2007 - Disclaimer

ORBIFLY MET'MAP TEAM :

Programmation & Développement : Alexandra Zaïnal
Sur une idée originale de : Baudouin d'Aumeries
Assistance à la programmation : Marc-Olivier Méhu
Soutien technique & logistique : Manuel Goepfert

Contact : metmap@orbifly.com




SOURCES & CREDITS :

   NOAA       Earth
Advisory